createdAt,value
2022-11-05T00:00:49.905Z,46.72
2022-11-05T00:03:36.147Z,46.56
2022-11-05T00:06:22.485Z,46.73
2022-11-05T00:09:17.693Z,46.47
2022-11-05T00:12:04.019Z,46.42
2022-11-05T00:14:51.645Z,46.49
2022-11-05T00:17:20.517Z,47.01
2022-11-05T00:19:49.456Z,46.40
2022-11-05T00:22:35.582Z,46.65
2022-11-05T00:25:17.761Z,46.63
2022-11-05T00:27:47.473Z,46.50
2022-11-05T00:30:19.288Z,46.58
2022-11-05T00:32:48.718Z,46.53
2022-11-05T00:35:18.043Z,46.31
2022-11-05T00:37:50.093Z,46.57
2022-11-05T00:40:19.762Z,46.43
2022-11-05T00:43:06.339Z,46.52
2022-11-05T00:45:37.875Z,46.44
2022-11-05T00:48:24.557Z,46.50
2022-11-05T00:50:53.350Z,46.35
2022-11-05T00:53:22.264Z,46.41
2022-11-05T00:55:51.053Z,46.23
2022-11-05T00:58:20.759Z,46.45
2022-11-05T01:00:52.412Z,46.15
2022-11-05T01:03:22.187Z,46.09
2022-11-05T01:05:52.138Z,46.21
2022-11-05T01:08:22.625Z,46.05
2022-11-05T01:10:52.176Z,45.88
2022-11-05T01:13:26.039Z,46.14
2022-11-05T01:15:56.301Z,46.00
2022-11-05T01:18:25.501Z,45.81
2022-11-05T01:20:54.301Z,45.95
2022-11-05T01:23:23.251Z,45.83
2022-11-05T01:25:52.071Z,45.85
2022-11-05T01:28:21.109Z,45.70
2022-11-05T01:30:58.359Z,45.72
2022-11-05T01:33:27.524Z,45.83
2022-11-05T01:35:56.250Z,45.54
2022-11-05T01:38:25.266Z,45.57
2022-11-05T01:40:54.223Z,45.53
2022-11-05T01:43:24.043Z,45.68
2022-11-05T01:45:54.052Z,45.62
2022-11-05T01:48:25.038Z,45.78
2022-11-05T01:50:57.294Z,45.64
2022-11-05T01:53:28.680Z,45.54
2022-11-05T01:56:00.482Z,45.65
2022-11-05T01:58:36.095Z,45.53
2022-11-05T02:01:05.007Z,45.49
2022-11-05T02:03:35.327Z,45.21
2022-11-05T02:06:04.153Z,45.55
2022-11-05T02:08:43.564Z,45.44
2022-11-05T02:11:13.582Z,45.32
2022-11-05T02:13:42.442Z,45.39
2022-11-05T02:16:14.020Z,45.38
2022-11-05T02:18:48.384Z,45.38
2022-11-05T02:21:56.674Z,45.36
2022-11-05T02:24:51.038Z,45.39
2022-11-05T02:27:22.441Z,45.40
2022-11-05T02:30:23.208Z,45.19
2022-11-05T02:33:03.515Z,45.29
2022-11-05T02:35:43.833Z,45.21
2022-11-05T02:38:14.805Z,45.26
2022-11-05T02:40:48.547Z,45.31
2022-11-05T02:43:21.919Z,45.32
2022-11-05T02:45:53.321Z,45.14
2022-11-05T02:48:27.944Z,44.96
2022-11-05T02:51:00.729Z,45.02
2022-11-05T02:53:33.517Z,45.10
2022-11-05T02:56:04.041Z,45.16
2022-11-05T02:58:34.280Z,45.10
2022-11-05T03:01:06.961Z,44.86
2022-11-05T03:03:38.659Z,45.12
2022-11-05T03:06:18.067Z,44.87
2022-11-05T03:09:10.693Z,44.92
2022-11-05T03:11:42.880Z,44.81
2022-11-05T03:14:16.659Z,44.92
2022-11-05T03:16:48.323Z,44.82
2022-11-05T03:19:20.926Z,44.86
2022-11-05T03:21:51.640Z,44.70
2022-11-05T03:24:21.662Z,44.75
2022-11-05T03:26:52.535Z,44.86
2022-11-05T03:29:23.273Z,44.69
2022-11-05T03:31:52.626Z,44.66
2022-11-05T03:34:26.090Z,44.61
2022-11-05T03:36:55.917Z,44.63
2022-11-05T03:39:28.861Z,44.89
2022-11-05T03:41:58.229Z,44.76
2022-11-05T03:44:28.499Z,44.74
2022-11-05T03:47:00.437Z,44.64
2022-11-05T03:49:34.328Z,44.46
2022-11-05T03:52:05.706Z,44.60
2022-11-05T03:54:34.849Z,44.43
2022-11-05T03:57:06.055Z,44.52
2022-11-05T03:59:39.599Z,44.46
2022-11-05T04:02:08.575Z,44.63
2022-11-05T04:04:39.018Z,44.66
2022-11-05T04:07:25.369Z,44.76
2022-11-05T04:10:11.528Z,44.55
2022-11-05T04:12:57.610Z,44.63
2022-11-05T04:15:27.101Z,44.48
2022-11-05T04:17:55.560Z,44.78
2022-11-05T04:20:43.737Z,44.68
2022-11-05T04:23:30.009Z,44.68
2022-11-05T04:25:58.937Z,44.61
2022-11-05T04:28:48.326Z,44.64
2022-11-05T04:31:16.236Z,44.40
2022-11-05T04:33:45.004Z,44.70
2022-11-05T04:36:15.287Z,44.42
2022-11-05T04:38:44.100Z,44.65
2022-11-05T04:41:16.696Z,44.75
2022-11-05T04:43:45.811Z,44.68
2022-11-05T04:46:14.727Z,44.66
2022-11-05T04:48:43.555Z,44.51
2022-11-05T04:51:14.036Z,44.53
2022-11-05T04:53:42.780Z,44.68
2022-11-05T04:56:12.710Z,44.68
2022-11-05T04:58:42.005Z,44.42
2022-11-05T05:01:13.807Z,44.83
2022-11-05T05:03:42.688Z,44.62
2022-11-05T05:06:11.616Z,44.38
2022-11-05T05:08:41.816Z,44.49
2022-11-05T05:11:11.947Z,44.38
2022-11-05T05:13:40.796Z,44.38
2022-11-05T05:16:10.427Z,44.41
2022-11-05T05:18:43.637Z,44.33
2022-11-05T05:21:32.744Z,44.12
2022-11-05T05:24:03.004Z,44.40
2022-11-05T05:26:32.021Z,44.05
2022-11-05T05:29:01.296Z,44.13
2022-11-05T05:31:30.147Z,44.19
2022-11-05T05:33:59.017Z,44.16
2022-11-05T05:36:27.927Z,44.15
2022-11-05T05:38:56.818Z,43.91
2022-11-05T05:41:27.144Z,44.22
2022-11-05T05:43:55.997Z,44.00
2022-11-05T05:46:25.141Z,44.09
2022-11-05T05:48:53.995Z,44.01
2022-11-05T05:51:22.841Z,43.97
2022-11-05T05:53:53.818Z,43.82
2022-11-05T05:56:22.659Z,44.07
2022-11-05T05:58:53.331Z,43.87
2022-11-05T06:01:22.215Z,44.03
2022-11-05T06:03:51.157Z,43.66
2022-11-05T06:06:21.180Z,43.91
2022-11-05T06:08:50.268Z,43.71
2022-11-05T06:11:19.042Z,43.78
2022-11-05T06:13:47.778Z,43.51
2022-11-05T06:16:19.443Z,43.92
2022-11-05T06:18:48.317Z,43.85
2022-11-05T06:21:18.102Z,43.82
2022-11-05T06:23:48.468Z,43.65
2022-11-05T06:26:18.367Z,43.75
2022-11-05T06:28:47.252Z,43.72
2022-11-05T06:31:17.942Z,43.41
2022-11-05T06:33:47.291Z,43.26
2022-11-05T06:36:17.285Z,43.19
2022-11-05T06:38:46.066Z,43.15
2022-11-05T06:41:14.841Z,43.13
2022-11-05T06:43:43.748Z,43.39
2022-11-05T06:46:12.668Z,43.46
2022-11-05T06:48:42.941Z,43.79
2022-11-05T06:51:11.908Z,44.92
2022-11-05T06:53:40.708Z,43.64
2022-11-05T06:56:09.897Z,43.75
2022-11-05T06:58:38.716Z,43.63
2022-11-05T07:01:09.040Z,43.82
2022-11-05T07:03:37.998Z,44.04
2022-11-05T07:06:08.732Z,44.53
2022-11-05T07:08:38.019Z,43.82
2022-11-05T07:11:07.033Z,43.89
2022-11-05T07:13:35.921Z,44.01
2022-11-05T07:16:04.796Z,44.02
2022-11-05T07:18:33.713Z,43.67
2022-11-05T07:21:02.491Z,43.70
2022-11-05T07:23:32.616Z,44.02
2022-11-05T07:26:02.914Z,44.02
2022-11-05T07:28:31.732Z,43.86
2022-11-05T07:31:00.689Z,44.01
2022-11-05T07:33:35.243Z,43.90
2022-11-05T07:36:05.520Z,43.75
2022-11-05T07:38:35.808Z,43.67
2022-11-05T07:41:04.644Z,43.62
2022-11-05T07:43:33.564Z,44.01
2022-11-05T07:46:02.351Z,43.65
2022-11-05T07:48:31.225Z,44.47
2022-11-05T07:51:00.076Z,44.51
2022-11-05T07:53:28.888Z,44.07
2022-11-05T07:55:59.145Z,44.05
2022-11-05T07:58:28.020Z,44.24
2022-11-05T08:00:58.140Z,44.27
2022-11-05T08:03:27.175Z,43.81
2022-11-05T08:05:56.276Z,43.70
2022-11-05T08:08:25.126Z,43.45
2022-11-05T08:10:54.038Z,43.94
2022-11-05T08:13:24.215Z,43.80
2022-11-05T08:15:53.266Z,43.60
2022-11-05T08:18:22.097Z,43.01
2022-11-05T08:20:51.031Z,43.57
2022-11-05T08:23:19.926Z,43.23
2022-11-05T08:25:48.840Z,43.13
2022-11-05T08:28:17.663Z,43.38
2022-11-05T08:30:50.450Z,43.44
2022-11-05T08:33:19.269Z,43.10
2022-11-05T08:35:48.086Z,43.43
2022-11-05T08:38:17.806Z,43.55
2022-11-05T08:40:47.456Z,44.30
2022-11-05T08:43:16.211Z,44.30
2022-11-05T08:45:44.931Z,44.46
2022-11-05T08:48:16.011Z,44.33
2022-11-05T08:50:45.089Z,44.43
2022-11-05T08:53:14.316Z,44.30
2022-11-05T08:55:43.981Z,44.20
2022-11-05T08:58:15.222Z,44.04
2022-11-05T09:00:44.239Z,44.33
2022-11-05T09:03:15.218Z,44.26
2022-11-05T09:05:44.540Z,44.05
2022-11-05T09:08:14.672Z,44.17
2022-11-05T09:10:43.563Z,44.31
2022-11-05T09:13:18.228Z,44.52
2022-11-05T09:15:49.231Z,44.81
2022-11-05T09:18:22.590Z,44.99
2022-11-05T09:20:51.375Z,45.43
2022-11-05T09:23:20.466Z,45.36
2022-11-05T09:25:49.267Z,45.25
2022-11-05T09:28:20.423Z,45.17
2022-11-05T09:30:49.978Z,44.97
2022-11-05T09:33:19.333Z,45.32
2022-11-05T09:35:49.519Z,45.17
2022-11-05T09:38:18.587Z,44.77
2022-11-05T09:40:54.510Z,45.22
2022-11-05T09:43:31.209Z,45.44
2022-11-05T09:46:00.931Z,44.90
2022-11-05T09:48:30.703Z,45.82
2022-11-05T09:51:00.864Z,45.85
2022-11-05T09:53:29.767Z,45.99
2022-11-05T09:56:00.009Z,45.90
2022-11-05T09:58:37.171Z,45.70
2022-11-05T10:01:06.232Z,46.28
2022-11-05T10:03:35.074Z,46.18
2022-11-05T10:06:08.831Z,46.20
2022-11-05T10:08:41.524Z,46.13
2022-11-05T10:11:12.845Z,46.07
2022-11-05T10:13:44.058Z,46.42
2022-11-05T10:16:23.171Z,46.47
2022-11-05T10:18:54.527Z,46.21
2022-11-05T10:21:51.328Z,46.34
2022-11-05T10:24:15.177Z,46.25
2022-11-05T10:26:46.131Z,46.11
2022-11-05T10:29:16.914Z,45.78
2022-11-05T10:31:45.725Z,45.70
2022-11-05T10:34:17.875Z,45.71
2022-11-05T10:36:48.121Z,45.54
2022-11-05T10:39:18.129Z,45.75
2022-11-05T10:42:00.751Z,45.77
2022-11-05T10:44:34.212Z,45.39
2022-11-05T10:47:10.119Z,45.39
2022-11-05T10:49:45.782Z,45.45
2022-11-05T10:52:21.910Z,45.41
2022-11-05T10:54:51.202Z,45.52
2022-11-05T10:57:31.415Z,45.42
2022-11-05T11:00:24.267Z,45.28
2022-11-05T11:02:54.557Z,45.41
2022-11-05T11:05:24.914Z,45.28
2022-11-05T11:07:59.511Z,45.05
2022-11-05T11:10:31.756Z,45.16
2022-11-05T11:13:00.557Z,45.14
2022-11-05T11:15:32.556Z,45.23
2022-11-05T11:18:18.832Z,45.31
2022-11-05T11:20:47.772Z,45.52
2022-11-05T11:23:18.202Z,45.40
2022-11-05T11:25:48.956Z,45.51
2022-11-05T11:28:23.911Z,45.26
2022-11-05T11:30:55.545Z,45.61
2022-11-05T11:33:27.176Z,45.30
2022-11-05T11:35:57.913Z,45.22
2022-11-05T11:38:30.250Z,45.19
2022-11-05T11:41:03.611Z,45.29
2022-11-05T11:43:34.474Z,45.27
2022-11-05T11:46:07.803Z,45.21
2022-11-05T11:48:38.746Z,45.33
2022-11-05T11:51:31.175Z,45.47
2022-11-05T11:54:02.184Z,45.02
2022-11-05T11:56:32.658Z,45.28
2022-11-05T11:59:04.096Z,45.11
2022-11-05T12:01:59.373Z,45.33
2022-11-05T12:04:52.757Z,45.26
2022-11-05T12:07:29.416Z,45.14
2022-11-05T12:10:09.450Z,45.04
2022-11-05T12:12:40.644Z,44.57
2022-11-05T12:15:22.922Z,45.18
2022-11-05T12:17:53.412Z,45.13
2022-11-05T12:20:37.241Z,45.19
2022-11-05T12:23:23.058Z,45.64
2022-11-05T12:25:56.654Z,45.36
2022-11-05T12:29:12.173Z,45.18
2022-11-05T12:31:36.703Z,45.43
2022-11-05T12:34:13.712Z,45.59
2022-11-05T12:36:53.171Z,45.50
2022-11-05T12:39:36.615Z,45.41
2022-11-05T12:42:09.328Z,45.42
2022-11-05T12:44:56.260Z,45.62
2022-11-05T12:47:44.582Z,45.70
2022-11-05T12:50:18.346Z,45.79
2022-11-05T12:53:17.094Z,46.33
2022-11-05T12:55:48.727Z,46.20
2022-11-05T12:58:22.257Z,46.44
2022-11-05T13:00:53.084Z,46.62
2022-11-05T13:03:28.496Z,47.33
2022-11-05T13:06:05.449Z,47.27
2022-11-05T13:08:37.946Z,48.21
2022-11-05T13:11:12.871Z,47.73
2022-11-05T13:13:45.410Z,47.57
2022-11-05T13:16:14.925Z,47.55
2022-11-05T13:18:46.233Z,48.00
2022-11-05T13:21:15.056Z,48.78
2022-11-05T13:23:45.547Z,48.58
2022-11-05T13:26:19.729Z,48.41
2022-11-05T13:28:55.031Z,48.15
2022-11-05T13:31:25.503Z,48.03
2022-11-05T13:33:54.544Z,48.00
2022-11-05T13:36:42.138Z,47.81
2022-11-05T13:39:15.747Z,47.45
2022-11-05T13:41:54.960Z,47.55
2022-11-05T13:44:47.765Z,47.68
2022-11-05T13:47:29.427Z,47.67
2022-11-05T13:50:25.891Z,47.56
2022-11-05T13:53:06.478Z,48.00
2022-11-05T13:56:07.390Z,47.79
2022-11-05T13:59:11.458Z,47.75
2022-11-05T14:01:50.757Z,47.76
2022-11-05T14:04:28.818Z,48.13
2022-11-05T14:07:05.868Z,47.91
2022-11-05T14:09:35.574Z,47.73
2022-11-05T14:12:05.155Z,47.83
2022-11-05T14:14:41.433Z,47.43
2022-11-05T14:17:22.441Z,47.09
2022-11-05T14:19:53.055Z,47.01
2022-11-05T14:22:41.280Z,47.03
2022-11-05T14:26:01.789Z,46.74
2022-11-05T14:28:42.788Z,46.72
2022-11-05T14:31:47.381Z,46.61
2022-11-05T14:34:48.971Z,46.90
2022-11-05T14:37:28.360Z,46.95
2022-11-05T14:39:57.456Z,46.22
2022-11-05T14:42:27.956Z,47.04
2022-11-05T14:45:02.152Z,47.07
2022-11-05T14:47:33.945Z,46.99
2022-11-05T14:50:11.575Z,47.13
2022-11-05T14:52:41.015Z,47.07
2022-11-05T14:55:28.492Z,46.88
2022-11-05T14:58:34.416Z,46.76
2022-11-05T15:01:03.917Z,46.84
2022-11-05T15:04:03.663Z,46.72
2022-11-05T15:06:35.279Z,47.13
2022-11-05T15:09:22.839Z,47.20
2022-11-05T15:12:09.171Z,47.07
2022-11-05T15:14:42.327Z,47.24
2022-11-05T15:17:17.399Z,46.96
2022-11-05T15:19:49.421Z,47.22
2022-11-05T15:22:28.242Z,46.74
2022-11-05T15:24:57.138Z,47.07
2022-11-05T15:27:40.688Z,46.94
2022-11-05T15:30:19.803Z,47.06
2022-11-05T15:32:48.666Z,46.73
2022-11-05T15:35:23.480Z,46.81
2022-11-05T15:38:00.354Z,46.65
2022-11-05T15:40:32.562Z,46.62
2022-11-05T15:43:20.724Z,46.67
2022-11-05T15:46:07.041Z,46.85
2022-11-05T15:48:36.263Z,46.69
2022-11-05T15:51:05.153Z,46.78
2022-11-05T15:54:08.430Z,46.31
2022-11-05T15:56:29.131Z,46.51
2022-11-05T15:59:00.144Z,46.35
2022-11-05T16:01:31.211Z,46.51
2022-11-05T16:04:04.465Z,46.36
2022-11-05T16:06:38.793Z,46.31
2022-11-05T16:09:08.970Z,45.99
2022-11-05T16:11:37.912Z,46.17
2022-11-05T16:14:16.992Z,45.95
2022-11-05T16:16:46.031Z,46.37
2022-11-05T16:19:39.881Z,46.24
2022-11-05T16:22:09.738Z,46.17
2022-11-05T16:24:39.823Z,46.06
2022-11-05T16:27:18.960Z,46.12
2022-11-05T16:30:18.066Z,46.26
2022-11-05T16:32:46.976Z,46.07
2022-11-05T16:35:20.723Z,46.02
2022-11-05T16:37:52.227Z,46.03
2022-11-05T16:40:24.088Z,46.00
2022-11-05T16:42:53.173Z,45.76
2022-11-05T16:45:22.615Z,46.06
2022-11-05T16:47:51.578Z,45.70
2022-11-05T16:50:23.731Z,45.50
2022-11-05T16:52:52.738Z,45.66
2022-11-05T16:55:22.891Z,45.74
2022-11-05T16:57:55.430Z,45.51
2022-11-05T17:00:24.605Z,45.66
2022-11-05T17:02:53.822Z,45.70
2022-11-05T17:05:24.541Z,45.68
2022-11-05T17:07:53.581Z,45.52
2022-11-05T17:10:24.427Z,45.42
2022-11-05T17:12:53.327Z,45.68
2022-11-05T17:15:24.055Z,45.42
2022-11-05T17:17:53.061Z,45.52
2022-11-05T17:20:36.785Z,45.51
2022-11-05T17:23:09.390Z,45.32
2022-11-05T17:25:39.821Z,45.48
2022-11-05T17:28:08.908Z,45.47
2022-11-05T17:30:40.385Z,45.41
2022-11-05T17:33:11.172Z,45.24
2022-11-05T17:35:40.828Z,45.49
2022-11-05T17:38:10.065Z,45.26
2022-11-05T17:40:40.444Z,45.08
2022-11-05T17:43:09.906Z,44.94
2022-11-05T17:45:43.845Z,45.03
2022-11-05T17:48:12.771Z,45.08
2022-11-05T17:50:42.399Z,45.10
2022-11-05T17:53:11.658Z,44.98
2022-11-05T17:55:43.194Z,44.87
2022-11-05T17:58:11.972Z,45.23
2022-11-05T18:00:40.746Z,45.16
2022-11-05T18:03:10.407Z,45.10
2022-11-05T18:05:40.070Z,44.93
2022-11-05T18:08:08.640Z,45.12
2022-11-05T18:10:37.987Z,44.84
2022-11-05T18:13:08.036Z,45.09
2022-11-05T18:15:40.929Z,45.21
2022-11-05T18:18:09.891Z,45.51
2022-11-05T18:20:38.651Z,45.62
2022-11-05T18:23:07.218Z,45.29
2022-11-05T18:25:35.713Z,45.66
2022-11-05T18:28:04.351Z,45.45
2022-11-05T18:30:34.332Z,45.25
2022-11-05T18:33:03.033Z,45.42
2022-11-05T18:35:31.849Z,45.52
2022-11-05T18:38:00.365Z,45.14
2022-11-05T18:40:28.888Z,45.45
2022-11-05T18:42:57.412Z,45.13
2022-11-05T18:45:29.702Z,45.50
2022-11-05T18:48:00.531Z,45.33
2022-11-05T18:50:29.410Z,45.54
2022-11-05T18:52:58.292Z,45.31
2022-11-05T18:55:27.264Z,45.41
2022-11-05T18:57:56.146Z,45.41
2022-11-05T19:00:25.004Z,45.04
2022-11-05T19:02:54.269Z,45.30
2022-11-05T19:05:29.423Z,45.37
2022-11-05T19:07:58.993Z,45.35
2022-11-05T19:10:28.067Z,45.05
2022-11-05T19:12:56.994Z,45.45
2022-11-05T19:15:26.873Z,45.58
2022-11-05T19:17:55.729Z,45.19
2022-11-05T19:20:25.989Z,45.19
2022-11-05T19:22:54.792Z,45.37
2022-11-05T19:25:23.584Z,45.33
2022-11-05T19:27:52.416Z,45.62
2022-11-05T19:30:22.637Z,45.69
2022-11-05T19:32:51.470Z,45.83
2022-11-05T19:35:20.311Z,45.71
2022-11-05T19:37:53.423Z,45.86
2022-11-05T19:40:22.400Z,45.93
2022-11-05T19:42:51.186Z,45.89
2022-11-05T19:45:43.481Z,46.21
2022-11-05T19:48:11.428Z,46.01
2022-11-05T19:50:43.113Z,45.94
2022-11-05T19:53:13.414Z,45.89
2022-11-05T19:55:42.377Z,45.94
2022-11-05T19:58:11.701Z,45.79
2022-11-05T20:00:40.649Z,46.06
2022-11-05T20:03:10.516Z,45.94
2022-11-05T20:05:39.504Z,45.87
2022-11-05T20:08:08.428Z,45.54
2022-11-05T20:10:40.009Z,45.73
2022-11-05T20:13:08.904Z,45.42
2022-11-05T20:15:39.726Z,45.57
2022-11-05T20:18:08.721Z,45.25
2022-11-05T20:20:37.625Z,45.40
2022-11-05T20:23:06.437Z,45.19
2022-11-05T20:25:35.384Z,45.20
2022-11-05T20:28:05.959Z,45.35
2022-11-05T20:30:35.664Z,44.92
2022-11-05T20:33:04.709Z,45.06
2022-11-05T20:35:33.544Z,45.09
2022-11-05T20:38:02.339Z,44.90
2022-11-05T20:40:31.155Z,45.10
2022-11-05T20:43:00.028Z,44.63
2022-11-05T20:45:30.404Z,44.75
2022-11-05T20:47:59.456Z,44.62
2022-11-05T20:50:29.366Z,44.63
2022-11-05T20:52:58.220Z,44.56
2022-11-05T20:55:26.752Z,45.13
2022-11-05T20:57:55.427Z,44.52
2022-11-05T21:00:24.386Z,44.71
2022-11-05T21:02:54.738Z,44.69
2022-11-05T21:05:23.474Z,44.95
2022-11-05T21:07:52.119Z,44.71
2022-11-05T21:10:20.641Z,44.51
2022-11-05T21:12:49.281Z,44.63
2022-11-05T21:15:23.156Z,44.25
2022-11-05T21:17:53.092Z,44.40
2022-11-05T21:20:22.516Z,44.29
2022-11-05T21:22:51.101Z,44.29
2022-11-05T21:25:19.555Z,44.15
2022-11-05T21:27:48.002Z,44.24
2022-11-05T21:30:16.548Z,44.15
2022-11-05T21:32:45.068Z,44.40
2022-11-05T21:35:14.950Z,44.00
2022-11-05T21:37:43.469Z,44.02
2022-11-05T21:40:13.060Z,44.26
2022-11-05T21:42:41.570Z,43.97
2022-11-05T21:45:11.458Z,44.12
2022-11-05T21:47:39.979Z,44.37
2022-11-05T21:50:09.953Z,44.26
2022-11-05T21:52:57.281Z,44.09
2022-11-05T21:55:43.531Z,44.09
2022-11-05T21:58:32.107Z,44.28
2022-11-05T22:01:01.309Z,44.08
2022-11-05T22:03:30.115Z,44.24
2022-11-05T22:05:58.649Z,44.17
2022-11-05T22:08:28.547Z,44.23
2022-11-05T22:10:57.066Z,43.96
2022-11-05T22:13:25.617Z,43.92
2022-11-05T22:15:57.179Z,43.95
2022-11-05T22:18:25.916Z,44.13
2022-11-05T22:20:54.579Z,43.93
2022-11-05T22:23:23.331Z,43.99
2022-11-05T22:25:59.888Z,43.71
2022-11-05T22:28:30.795Z,43.73
2022-11-05T22:30:59.417Z,43.96
2022-11-05T22:33:27.979Z,43.70
2022-11-05T22:35:56.785Z,43.91
2022-11-05T22:38:25.279Z,43.90
2022-11-05T22:40:55.252Z,43.63
2022-11-05T22:43:23.768Z,43.94
2022-11-05T22:45:52.312Z,43.49
2022-11-05T22:48:20.804Z,43.73
2022-11-05T22:50:49.338Z,43.91
2022-11-05T22:53:17.953Z,43.70
2022-11-05T22:55:46.476Z,43.76
2022-11-05T22:58:16.532Z,43.66
2022-11-05T23:00:45.172Z,43.56
2022-11-05T23:03:14.397Z,43.55
2022-11-05T23:05:42.943Z,43.75
2022-11-05T23:08:28.905Z,43.48
2022-11-05T23:11:22.890Z,43.65
2022-11-05T23:13:52.903Z,43.47
2022-11-05T23:16:38.802Z,43.73
2022-11-05T23:19:24.957Z,43.49
2022-11-05T23:22:10.992Z,43.55
2022-11-05T23:24:39.685Z,44.93
2022-11-05T23:27:08.307Z,44.75
2022-11-05T23:29:38.700Z,44.50
2022-11-05T23:32:25.151Z,44.96
2022-11-05T23:34:53.811Z,44.82
2022-11-05T23:37:40.702Z,44.80
2022-11-05T23:40:12.201Z,44.87
2022-11-05T23:42:58.268Z,44.57
2022-11-05T23:45:45.701Z,44.51
2022-11-05T23:48:17.398Z,44.43
2022-11-05T23:50:48.204Z,44.49
2022-11-05T23:53:16.694Z,44.57
2022-11-05T23:55:45.247Z,44.43
2022-11-05T23:58:13.977Z,44.51
